Time;durP1;ratioP1;P1;durP2;ratioP2;P2;SDS_P1;SDS_P2;PMS_P1;PMS_P2;Temp;Humidity;BMP_temperature;BMP_pressure;BME280_temperature;BME280_humidity;BME280_pressure;Samples;Min_cycle;Max_cycle;Signal;HPM_P1;HPM_P2
2022/11/26 00:00:17;;;;;;;1.05;0.77;;;5.00;99.90;;;;;;5052341;28;20066;-70
2022/11/26 00:02:43;;;;;;;1.60;0.82;;;4.90;99.90;;;;;;5050129;28;20047;-70
2022/11/26 00:05:15;;;;;;;1.60;0.77;;;5.00;99.90;;;;;;5049084;28;20047;-71
2022/11/26 00:07:46;;;;;;;1.13;0.70;;;5.10;99.90;;;;;;5065842;28;20044;-71
2022/11/26 00:10:21;;;;;;;2.35;0.77;;;5.20;99.90;;;;;;5066265;28;20053;-70
2022/11/26 00:12:47;;;;;;;1.50;0.75;;;5.20;99.90;;;;;;5068400;28;20105;-71
2022/11/26 00:15:29;;;;;;;1.45;0.70;;;5.20;99.90;;;;;;5068760;28;20044;-71
2022/11/26 00:17:56;;;;;;;1.63;0.80;;;5.10;99.90;;;;;;5052706;28;20037;-71
2022/11/26 00:20:27;;;;;;;2.55;0.80;;;5.10;99.90;;;;;;5066472;28;20113;-71
2022/11/26 00:22:57;;;;;;;1.73;0.90;;;5.10;99.90;;;;;;5062307;28;20171;-70
2022/11/26 00:25:48;;;;;;;2.05;0.90;;;5.00;99.90;;;;;;5069253;28;20106;-70
2022/11/26 00:28:27;;;;;;;1.70;0.85;;;5.00;99.90;;;;;;5030466;28;20056;-70
2022/11/26 00:30:55;;;;;;;1.58;0.80;;;4.80;99.90;;;;;;5049926;28;20048;-71
2022/11/26 00:33:21;;;;;;;1.38;0.68;;;4.90;99.90;;;;;;5062363;28;20472;-71
2022/11/26 00:35:49;;;;;;;1.85;0.68;;;4.90;99.90;;;;;;5063105;28;20088;-71
2022/11/26 00:38:19;;;;;;;1.00;0.70;;;4.80;99.90;;;;;;5054829;28;20105;-71
2022/11/26 00:40:44;;;;;;;1.80;0.90;;;4.80;99.90;;;;;;5037919;28;20086;-77
2022/11/26 00:43:12;;;;;;;1.52;0.88;;;4.90;99.90;;;;;;5060922;28;20048;-77
2022/11/26 00:45:38;;;;;;;2.20;0.95;;;4.90;99.90;;;;;;5055401;28;20076;-77
2022/11/26 00:48:04;;;;;;;3.17;0.80;;;4.70;99.90;;;;;;5051938;28;20076;-77
2022/11/26 00:50:36;;;;;;;1.92;0.80;;;4.80;99.90;;;;;;5051784;28;20043;-77
2022/11/26 00:53:04;;;;;;;2.65;1.10;;;4.70;99.90;;;;;;5052562;28;20102;-77
2022/11/26 00:55:35;;;;;;;1.13;0.70;;;4.60;99.90;;;;;;5045127;28;20037;-77
2022/11/26 00:58:01;;;;;;;1.70;1.00;;;4.70;99.90;;;;;;5070226;28;20040;-77
2022/11/26 01:00:30;;;;;;;1.38;0.75;;;4.70;99.90;;;;;;5073635;28;20044;-77
2022/11/26 01:02:56;;;;;;;1.58;0.75;;;4.70;99.90;;;;;;5046505;28;20037;-76
2022/11/26 01:05:24;;;;;;;1.50;0.77;;;4.60;99.90;;;;;;5053628;28;20060;-76
2022/11/26 01:07:51;;;;;;;2.47;0.90;;;4.70;99.90;;;;;;5073601;28;20123;-76
2022/11/26 01:10:21;;;;;;;1.08;0.77;;;4.70;99.90;;;;;;5069200;28;20033;-76
2022/11/26 01:12:48;;;;;;;1.13;0.60;;;4.60;99.90;;;;;;5046296;28;20037;-76
2022/11/26 01:15:15;;;;;;;1.00;0.65;;;4.60;99.90;;;;;;5069890;28;20049;-76
2022/11/26 01:17:41;;;;;;;1.67;0.80;;;4.60;99.90;;;;;;5055753;28;20045;-76
2022/11/26 01:20:27;;;;;;;1.45;0.70;;;4.60;99.90;;;;;;5069707;28;20484;-76
2022/11/26 01:22:55;;;;;;;2.88;0.88;;;4.40;99.90;;;;;;5048817;28;20055;-76
2022/11/26 01:25:22;;;;;;;1.15;0.60;;;4.60;99.90;;;;;;5057827;28;20053;-76
2022/11/26 01:27:47;;;;;;;0.65;0.50;;;4.40;99.90;;;;;;5070921;28;20079;-76
2022/11/26 01:30:22;;;;;;;1.20;0.68;;;4.60;99.90;;;;;;5054399;28;20044;-76
2022/11/26 01:32:49;;;;;;;0.85;0.50;;;4.50;99.90;;;;;;5062224;28;20032;-77
2022/11/26 01:35:16;;;;;;;1.20;0.77;;;4.40;99.90;;;;;;5044957;28;20377;-76
2022/11/26 01:37:43;;;;;;;1.92;0.75;;;4.50;99.90;;;;;;5037811;28;20049;-76
2022/11/26 01:40:27;;;;;;;1.58;0.70;;;4.30;99.90;;;;;;5063590;28;20044;-77
2022/11/26 01:43:21;;;;;;;0.68;0.63;;;4.40;99.90;;;;;;5046319;28;20117;-77
2022/11/26 01:45:46;;;;;;;1.80;1.00;;;4.60;99.90;;;;;;5056000;28;20052;-76
2022/11/26 01:48:23;;;;;;;2.22;0.70;;;4.50;99.90;;;;;;5062416;28;20392;-75
2022/11/26 01:51:05;;;;;;;2.35;0.63;;;4.40;99.90;;;;;;5064478;28;20507;-76
2022/11/26 01:53:51;;;;;;;0.80;0.60;;;4.40;99.90;;;;;;5062374;28;20041;-75
2022/11/26 01:56:26;;;;;;;1.95;0.98;;;4.50;99.90;;;;;;5064244;28;20045;-70
2022/11/26 01:59:04;;;;;;;2.05;0.93;;;4.50;99.90;;;;;;5069687;28;20044;-71
2022/11/26 02:01:31;;;;;;;1.88;0.88;;;4.60;99.90;;;;;;5062933;28;20040;-70
2022/11/26 02:04:17;;;;;;;1.50;0.93;;;4.40;99.90;;;;;;5048227;28;20170;-71
2022/11/26 02:06:46;;;;;;;0.98;0.70;;;4.70;99.90;;;;;;5062526;28;20385;-71
2022/11/26 02:09:13;;;;;;;2.55;1.00;;;4.50;99.90;;;;;;5065986;28;20052;-71
2022/11/26 02:11:40;;;;;;;1.92;0.80;;;4.70;99.90;;;;;;5063714;28;20419;-71
2022/11/26 02:14:31;;;;;;;1.52;0.80;;;4.60;99.90;;;;;;5068197;28;20063;-71
2022/11/26 02:17:02;;;;;;;1.33;0.80;;;4.70;99.90;;;;;;5045795;28;20091;-71
2022/11/26 02:19:31;;;;;;;1.00;0.70;;;4.60;99.90;;;;;;5068869;28;20083;-72
2022/11/26 02:22:17;;;;;;;1.20;0.90;;;4.50;99.90;;;;;;5047326;28;20048;-71
2022/11/26 02:25:12;;;;;;;1.33;0.90;;;4.40;99.90;;;;;;5060757;28;20045;-71
2022/11/26 02:27:43;;;;;;;1.60;0.73;;;4.30;99.90;;;;;;5048506;28;20378;-71
2022/11/26 02:30:11;;;;;;;0.93;0.70;;;4.40;99.90;;;;;;5037721;28;20036;-71
2022/11/26 02:33:06;;;;;;;1.63;0.80;;;4.30;99.90;;;;;;5068103;28;20071;-71
2022/11/26 02:36:06;;;;;;;2.15;1.00;;;4.40;99.90;;;;;;5063328;28;20454;-71
2022/11/26 02:38:36;;;;;;;1.15;0.75;;;4.40;99.90;;;;;;5044630;28;20388;-71
2022/11/26 02:41:02;;;;;;;0.90;0.65;;;4.20;99.90;;;;;;5056882;28;20092;-71
2022/11/26 02:43:29;;;;;;;1.27;0.80;;;4.40;99.90;;;;;;5056595;28;20389;-70
2022/11/26 02:46:04;;;;;;;1.63;0.60;;;4.20;99.90;;;;;;5054288;28;20051;-70
2022/11/26 02:48:33;;;;;;;1.15;0.60;;;4.10;99.90;;;;;;5070370;28;20066;-71
2022/11/26 02:51:03;;;;;;;1.33;0.80;;;4.40;99.90;;;;;;5069676;28;20484;-70
2022/11/26 02:53:32;;;;;;;1.10;0.57;;;4.30;99.90;;;;;;5054940;28;20047;-70
2022/11/26 02:56:17;;;;;;;1.05;0.60;;;4.30;99.90;;;;;;5064866;28;20091;-76
2022/11/26 02:58:43;;;;;;;1.50;0.70;;;4.10;99.90;;;;;;5056482;28;20130;-76
2022/11/26 03:01:16;;;;;;;1.35;0.68;;;4.30;99.90;;;;;;5063682;28;20902;-76
2022/11/26 03:03:52;;;;;;;1.15;0.80;;;4.40;99.90;;;;;;5072590;28;20137;-76
2022/11/26 03:06:20;;;;;;;1.70;0.75;;;4.30;99.90;;;;;;5034159;28;20053;-77
2022/11/26 03:08:46;;;;;;;1.40;0.85;;;4.20;99.90;;;;;;5056968;28;20059;-77
2022/11/26 03:11:12;;;;;;;1.02;0.70;;;4.40;99.90;;;;;;5050810;28;20040;-72
2022/11/26 03:13:37;;;;;;;1.38;0.50;;;4.30;99.90;;;;;;5052179;28;20499;-70
2022/11/26 03:16:03;;;;;;;1.73;0.80;;;4.10;99.90;;;;;;5061871;28;20071;-69
2022/11/26 03:18:29;;;;;;;2.03;1.20;;;4.20;99.90;;;;;;5060882;28;20480;-70
2022/11/26 03:20:55;;;;;;;1.80;1.08;;;4.40;99.90;;;;;;5062944;28;20064;-70
2022/11/26 03:23:21;;;;;;;1.23;0.80;;;4.10;99.90;;;;;;5048475;28;20056;-70
2022/11/26 03:25:47;;;;;;;1.90;0.90;;;4.10;99.90;;;;;;5059244;28;20052;-71
2022/11/26 03:28:13;;;;;;;1.55;0.93;;;4.00;99.90;;;;;;5066701;28;20045;-71
2022/11/26 03:30:38;;;;;;;2.28;1.10;;;4.20;99.90;;;;;;5060881;28;20041;-71
2022/11/26 03:33:04;;;;;;;0.77;0.77;;;4.30;99.90;;;;;;5044896;28;20055;-71
2022/11/26 03:35:29;;;;;;;1.95;1.33;;;4.20;99.90;;;;;;5051655;28;20060;-71
2022/11/26 03:37:55;;;;;;;2.60;1.10;;;4.40;99.90;;;;;;5036713;28;20093;-71
2022/11/26 03:40:21;;;;;;;1.67;1.00;;;4.40;99.90;;;;;;5050090;28;20496;-71
2022/11/26 03:42:47;;;;;;;2.92;1.00;;;4.10;99.90;;;;;;5033411;28;20053;-70
2022/11/26 03:45:12;;;;;;;3.25;1.42;;;4.20;99.90;;;;;;5060385;28;20076;-70
2022/11/26 03:47:38;;;;;;;1.40;1.00;;;4.20;99.90;;;;;;5066402;28;20044;-70
2022/11/26 03:50:05;;;;;;;2.10;1.13;;;4.40;99.90;;;;;;5070249;28;20050;-70
2022/11/26 03:52:31;;;;;;;1.60;1.10;;;4.30;99.90;;;;;;5036809;28;20119;-70
2022/11/26 03:54:56;;;;;;;1.58;1.00;;;4.20;99.90;;;;;;5049646;28;20528;-70
2022/11/26 03:57:22;;;;;;;1.38;0.90;;;4.20;99.90;;;;;;5052482;28;20052;-70
2022/11/26 03:59:48;;;;;;;0.85;0.60;;;4.30;99.90;;;;;;5051325;28;20110;-70
2022/11/26 04:02:14;;;;;;;0.90;0.63;;;4.20;99.90;;;;;;5051494;28;20099;-70
2022/11/26 04:04:39;;;;;;;1.65;0.90;;;4.30;99.90;;;;;;5051583;28;20476;-69
2022/11/26 04:07:05;;;;;;;0.88;0.65;;;4.20;99.90;;;;;;5064182;28;20474;-69
2022/11/26 04:09:31;;;;;;;1.00;0.70;;;4.20;99.90;;;;;;5069877;28;20057;-70
2022/11/26 04:11:56;;;;;;;1.55;0.70;;;4.00;99.90;;;;;;5047534;28;20033;-70
2022/11/26 04:14:22;;;;;;;1.10;0.80;;;4.30;99.90;;;;;;5051371;28;20107;-70
2022/11/26 04:16:48;;;;;;;0.70;0.60;;;4.00;99.90;;;;;;5034280;28;20041;-70
2022/11/26 04:19:14;;;;;;;1.65;0.90;;;4.10;99.90;;;;;;5049993;28;20396;-71
2022/11/26 04:21:39;;;;;;;0.90;0.80;;;3.90;99.90;;;;;;5057286;28;20063;-70
2022/11/26 04:24:06;;;;;;;1.98;0.90;;;4.20;99.90;;;;;;5053179;28;20048;-70
2022/11/26 04:26:31;;;;;;;;;;;4.00;99.90;;;;;;5067040;28;20037;-70
2022/11/26 04:28:57;;;;;;;1.83;0.98;;;3.90;99.90;;;;;;5069732;28;19951;-70
2022/11/26 04:31:23;;;;;;;3.15;1.10;;;3.90;99.90;;;;;;5054671;28;20071;-70
2022/11/26 04:33:48;;;;;;;2.30;1.20;;;4.10;99.90;;;;;;5059057;28;20078;-76
2022/11/26 04:36:14;;;;;;;1.80;1.00;;;4.00;99.90;;;;;;5061843;28;20115;-76
2022/11/26 04:38:40;;;;;;;2.53;1.10;;;3.90;99.90;;;;;;5060509;28;20051;-76
2022/11/26 04:41:05;;;;;;;1.63;1.13;;;3.90;99.90;;;;;;5035620;28;20041;-76
2022/11/26 04:43:31;;;;;;;2.05;1.30;;;3.90;99.90;;;;;;5041446;28;20044;-77
2022/11/26 04:45:57;;;;;;;2.60;1.23;;;4.10;99.90;;;;;;5058008;28;20056;-76
2022/11/26 04:48:23;;;;;;;1.23;0.98;;;4.20;99.90;;;;;;5033760;28;20478;-76
2022/11/26 04:50:49;;;;;;;2.13;1.27;;;4.30;99.90;;;;;;5047700;28;20036;-77
2022/11/26 04:53:15;;;;;;;1.77;1.20;;;4.00;99.90;;;;;;5054236;28;20032;-71
2022/11/26 04:55:41;;;;;;;;;;;4.00;99.90;;;;;;5050040;28;20115;-70
2022/11/26 04:58:07;;;;;;;1.75;1.00;;;3.90;99.90;;;;;;5060676;28;19921;-70
2022/11/26 05:00:33;;;;;;;1.58;0.90;;;4.20;99.90;;;;;;5041154;28;20073;-70
2022/11/26 05:02:58;;;;;;;1.27;1.02;;;4.20;99.90;;;;;;5064955;28;20039;-70
2022/11/26 05:05:24;;;;;;;1.60;1.10;;;4.20;99.90;;;;;;5058768;28;20056;-71
2022/11/26 05:07:49;;;;;;;1.77;1.15;;;4.30;99.90;;;;;;5050560;28;20106;-71
2022/11/26 05:10:15;;;;;;;2.97;1.80;;;4.40;99.90;;;;;;5049163;28;20425;-70
2022/11/26 05:12:41;;;;;;;2.10;1.50;;;4.40;99.90;;;;;;5053057;28;20569;-70
2022/11/26 05:15:07;;;;;;;3.03;1.48;;;4.40;99.90;;;;;;5066771;28;20040;-70
2022/11/26 05:17:33;;;;;;;2.97;1.40;;;4.20;99.90;;;;;;5068290;28;20053;-70
2022/11/26 05:19:58;;;;;;;2.67;1.60;;;4.20;99.90;;;;;;5035979;28;20098;-70
2022/11/26 05:22:24;;;;;;;3.13;1.55;;;4.00;99.90;;;;;;5068215;28;20506;-71
2022/11/26 05:24:50;;;;;;;2.17;1.55;;;3.90;99.90;;;;;;5066641;28;20437;-70
2022/11/26 05:27:15;;;;;;;2.83;1.65;;;4.30;99.90;;;;;;5069119;28;20040;-70
2022/11/26 05:29:41;;;;;;;4.10;1.65;;;4.30;99.90;;;;;;5065260;28;20041;-70
2022/11/26 05:32:06;;;;;;;2.25;1.42;;;4.00;99.90;;;;;;5054617;28;20041;-70
2022/11/26 05:34:32;;;;;;;1.50;1.20;;;4.20;99.90;;;;;;5057125;28;20037;-70
2022/11/26 05:36:58;;;;;;;1.88;1.10;;;4.40;99.90;;;;;;5051251;28;20045;-70
2022/11/26 05:39:24;;;;;;;2.80;1.70;;;4.20;99.90;;;;;;5052383;28;20040;-70
2022/11/26 05:41:50;;;;;;;3.17;1.55;;;4.10;99.90;;;;;;5064279;28;20484;-70
2022/11/26 05:44:15;;;;;;;2.38;1.55;;;4.10;99.90;;;;;;5068523;28;20103;-70
2022/11/26 05:46:41;;;;;;;1.85;1.50;;;3.90;99.90;;;;;;5044361;28;20522;-70
2022/11/26 05:49:07;;;;;;;1.42;1.30;;;4.20;99.90;;;;;;5035593;28;20040;-70
2022/11/26 05:51:33;;;;;;;3.58;1.30;;;3.80;99.90;;;;;;5036742;28;20511;-70
2022/11/26 05:53:59;;;;;;;1.88;1.30;;;3.80;99.90;;;;;;5066779;28;20106;-70
2022/11/26 05:56:25;;;;;;;1.58;1.10;;;4.00;99.90;;;;;;5070704;28;20048;-70
2022/11/26 05:58:50;;;;;;;2.95;1.60;;;4.30;99.90;;;;;;5070963;28;20060;-70
2022/11/26 06:01:16;;;;;;;2.95;1.50;;;4.20;99.90;;;;;;5069328;28;20070;-72
2022/11/26 06:03:42;;;;;;;3.63;1.83;;;3.70;99.90;;;;;;5071325;28;20069;-72
2022/11/26 06:06:08;;;;;;;3.58;1.52;;;4.00;99.90;;;;;;5051822;28;20125;-73
2022/11/26 06:08:34;;;;;;;2.65;1.70;;;3.80;99.90;;;;;;5072304;28;20056;-72
2022/11/26 06:10:59;;;;;;;2.95;1.90;;;4.30;99.90;;;;;;5049066;28;20041;-73
2022/11/26 06:13:25;;;;;;;2.90;2.00;;;3.80;99.90;;;;;;5064514;28;20044;-72
2022/11/26 06:15:51;;;;;;;3.13;2.00;;;4.20;99.90;;;;;;5071788;28;20033;-72
2022/11/26 06:18:17;;;;;;;2.13;1.70;;;3.90;99.90;;;;;;5056108;28;20218;-71
2022/11/26 06:20:44;;;;;;;2.38;1.73;;;4.20;99.90;;;;;;5067106;28;20511;-71
2022/11/26 06:23:10;;;;;;;2.00;1.50;;;3.60;99.90;;;;;;5059773;28;20081;-71
2022/11/26 06:25:38;;;;;;;2.38;1.50;;;3.80;99.90;;;;;;5035535;28;20029;-71
2022/11/26 06:28:04;;;;;;;1.75;1.35;;;4.10;99.90;;;;;;5061596;28;20041;-72
2022/11/26 06:30:29;;;;;;;2.53;1.60;;;3.90;99.90;;;;;;5051846;28;20485;-71
2022/11/26 06:32:55;;;;;;;2.78;1.75;;;3.50;99.90;;;;;;5067266;28;20765;-72
2022/11/26 06:35:21;;;;;;;3.13;1.83;;;3.60;99.90;;;;;;5067200;28;20161;-71
2022/11/26 06:37:46;;;;;;;4.10;2.03;;;3.50;99.90;;;;;;5051951;28;20300;-72
2022/11/26 06:40:17;;;;;;;3.97;2.23;;;3.50;99.90;;;;;;5054674;28;20037;-72
2022/11/26 06:42:47;;;;;;;3.33;2.00;;;3.50;99.90;;;;;;5057926;28;20329;-72
2022/11/26 06:45:13;;;;;;;4.68;2.20;;;3.70;99.90;;;;;;5070241;28;20063;-72
2022/11/26 06:47:39;;;;;;;2.70;1.88;;;3.50;99.90;;;;;;5070902;28;20048;-72
2022/11/26 06:50:05;;;;;;;3.33;2.10;;;3.90;99.90;;;;;;5052553;28;20045;-72
2022/11/26 06:52:31;;;;;;;3.92;2.03;;;4.20;99.90;;;;;;5069409;28;20075;-72
2022/11/26 06:54:56;;;;;;;3.17;1.80;;;4.00;99.90;;;;;;5043364;28;20065;-72
2022/11/26 06:57:22;;;;;;;1.80;1.33;;;4.00;99.90;;;;;;5051539;28;20288;-72
2022/11/26 06:59:47;;;;;;;2.60;1.67;;;3.50;99.90;;;;;;5059325;28;20506;-72
2022/11/26 07:02:13;;;;;;;3.20;1.60;;;3.50;99.90;;;;;;5067728;28;20072;-72
2022/11/26 07:04:39;;;;;;;2.72;1.83;;;4.10;99.90;;;;;;5041589;28;20049;-72
2022/11/26 07:07:05;;;;;;;2.50;1.85;;;3.40;99.90;;;;;;5056755;28;20124;-72
2022/11/26 07:09:31;;;;;;;2.92;1.70;;;3.80;99.90;;;;;;5032503;28;20115;-73
2022/11/26 07:11:57;;;;;;;2.97;1.85;;;3.60;99.90;;;;;;5066687;28;20123;-72
2022/11/26 07:14:23;;;;;;;5.55;2.60;;;3.70;99.90;;;;;;5041035;28;20491;-71
2022/11/26 07:16:48;;;;;;;5.18;2.80;;;4.30;99.90;;;;;;5060913;28;20040;-72
2022/11/26 07:19:14;;;;;;;7.63;3.58;;;4.00;99.90;;;;;;5038479;28;20484;-72
2022/11/26 07:21:40;;;;;;;5.78;2.80;;;4.30;99.90;;;;;;5054576;28;20041;-72
2022/11/26 07:24:06;;;;;;;4.13;2.83;;;4.20;99.90;;;;;;5034466;28;20041;-71
2022/11/26 07:26:32;;;;;;;5.32;3.28;;;3.70;99.90;;;;;;5056024;28;20459;-71
2022/11/26 07:28:57;;;;;;;6.03;3.80;;;4.10;99.90;;;;;;5068443;28;20044;-72
2022/11/26 07:31:23;;;;;;;5.38;3.20;;;3.70;99.90;;;;;;5063436;28;20032;-71
2022/11/26 07:33:49;;;;;;;5.35;3.30;;;3.90;99.90;;;;;;5068428;28;20446;-70
2022/11/26 07:36:18;;;;;;;4.85;3.17;;;3.70;99.90;;;;;;5067178;28;20099;-71
2022/11/26 07:38:44;;;;;;;5.30;2.90;;;3.80;99.90;;;;;;5060087;28;20438;-71
2022/11/26 07:41:12;;;;;;;6.40;3.38;;;3.90;99.90;;;;;;5050998;28;20044;-70
2022/11/26 07:43:39;;;;;;;5.68;3.25;;;4.30;99.90;;;;;;5054642;28;20044;-71
2022/11/26 07:46:07;;;;;;;4.35;2.60;;;4.10;99.90;;;;;;5058391;28;20048;-70
2022/11/26 07:48:33;;;;;;;7.15;2.90;;;4.10;99.90;;;;;;5055364;28;20052;-71
2022/11/26 07:51:00;;;;;;;4.78;3.10;;;4.60;99.90;;;;;;5049573;28;20044;-71
2022/11/26 07:53:30;;;;;;;3.47;2.25;;;4.70;99.90;;;;;;5057526;28;20063;-71
2022/11/26 07:55:56;;;;;;;4.88;2.63;;;4.40;99.90;;;;;;5061241;28;20037;-70
2022/11/26 07:58:22;;;;;;;4.60;2.72;;;4.40;99.90;;;;;;5054719;28;20384;-76
2022/11/26 08:00:48;;;;;;;3.45;2.30;;;4.40;99.90;;;;;;5041289;28;20048;-76
2022/11/26 08:03:13;;;;;;;3.30;1.85;;;4.20;99.90;;;;;;5054500;28;20093;-76
2022/11/26 08:05:43;;;;;;;3.05;2.00;;;4.00;99.90;;;;;;5058160;28;20053;-77
2022/11/26 08:08:10;;;;;;;2.53;1.85;;;4.20;99.90;;;;;;5056292;28;20045;-76
2022/11/26 08:10:36;;;;;;;;;;;4.20;99.90;;;;;;5055120;28;20028;-76
2022/11/26 08:13:02;;;;;;;5.32;3.17;;;4.70;99.90;;;;;;5059847;28;19966;-75
2022/11/26 08:15:28;;;;;;;;;;;4.20;99.90;;;;;;5060078;28;20040;-76
2022/11/26 08:17:54;;;;;;;5.50;3.30;;;4.30;99.90;;;;;;5038488;28;20034;-77
2022/11/26 08:20:20;;;;;;;3.97;2.88;;;4.30;99.90;;;;;;5058074;28;20036;-76
2022/11/26 08:22:46;;;;;;;5.57;4.20;;;4.50;99.90;;;;;;5060746;28;20112;-76
2022/11/26 08:25:11;;;;;;;7.60;4.38;;;4.30;99.90;;;;;;5070488;28;20048;-76
2022/11/26 08:27:37;;;;;;;5.88;3.60;;;5.20;99.90;;;;;;5058190;28;20492;-76
2022/11/26 08:30:04;;;;;;;7.60;3.70;;;4.50;99.90;;;;;;5069674;28;20476;-75
2022/11/26 08:32:30;;;;;;;6.30;3.20;;;5.10;99.90;;;;;;5056746;28;20041;-76
2022/11/26 08:34:56;;;;;;;4.45;3.03;;;4.50;99.90;;;;;;5054615;28;20074;-76
2022/11/26 08:37:22;;;;;;;3.95;2.28;;;5.20;99.90;;;;;;5070610;28;20471;-77
2022/11/26 08:39:48;;;;;;;4.25;2.63;;;5.10;99.90;;;;;;5069789;28;20048;-77
2022/11/26 08:42:13;;;;;;;4.28;2.85;;;4.70;99.90;;;;;;5054472;28;20052;-76
2022/11/26 08:44:39;;;;;;;5.57;2.80;;;5.50;99.90;;;;;;5049928;28;20084;-76
2022/11/26 08:47:05;;;;;;;5.10;2.92;;;4.90;99.90;;;;;;5054844;28;20040;-76
2022/11/26 08:49:30;;;;;;;6.82;2.70;;;5.60;99.90;;;;;;5049756;28;20047;-74
2022/11/26 08:51:56;;;;;;;3.50;2.78;;;5.60;99.90;;;;;;5068247;28;20146;-75
2022/11/26 08:54:23;;;;;;;4.40;2.92;;;5.60;99.90;;;;;;5060739;28;20384;-75
2022/11/26 08:56:48;;;;;;;6.40;2.90;;;5.20;99.90;;;;;;5067009;28;20123;-74
2022/11/26 08:59:15;;;;;;;3.50;2.20;;;5.80;99.90;;;;;;5045277;28;20125;-76
2022/11/26 09:01:40;;;;;;;;;;;5.10;99.90;;;;;;5053913;28;20051;-76
2022/11/26 09:04:06;;;;;;;5.22;2.50;;;5.80;99.90;;;;;;5053852;28;19920;-70
2022/11/26 09:06:35;;;;;;;3.15;2.42;;;5.70;99.90;;;;;;5057040;28;20051;-72
2022/11/26 09:09:12;;;;;;;5.55;3.05;;;5.30;99.90;;;;;;5049099;28;20090;-70
2022/11/26 09:11:45;;;;;;;9.63;4.25;;;6.10;99.90;;;;;;5058204;28;20098;-70
2022/11/26 09:14:12;;;;;;;4.25;3.10;;;5.50;99.90;;;;;;5056414;28;20041;-72
2022/11/26 09:16:38;;;;;;;9.85;3.90;;;6.20;99.90;;;;;;5051521;28;20079;-69
2022/11/26 09:19:05;;;;;;;7.95;3.85;;;6.20;99.90;;;;;;5056892;28;20066;-71
2022/11/26 09:21:35;;;;;;;6.95;3.38;;;5.60;99.90;;;;;;5036879;28;20578;-68
2022/11/26 09:24:01;;;;;;;7.50;4.03;;;5.60;99.90;;;;;;5053467;28;20055;-69
2022/11/26 09:26:32;;;;;;;7.47;3.95;;;5.70;99.90;;;;;;5056333;28;20041;-70
2022/11/26 09:28:58;;;;;;;6.05;3.30;;;6.00;99.90;;;;;;5062631;28;20049;-69
2022/11/26 09:31:24;;;;;;;8.10;3.45;;;5.90;99.90;;;;;;5059942;28;20044;-69
2022/11/26 09:33:49;;;;;;;5.10;3.08;;;6.50;99.90;;;;;;5054822;28;20048;-69
2022/11/26 09:36:17;;;;;;;5.20;2.30;;;5.80;99.90;;;;;;5038006;28;20060;-69
2022/11/26 09:38:43;;;;;;;4.30;2.50;;;6.40;99.90;;;;;;5043851;28;20099;-70
2022/11/26 09:41:18;;;;;;;;;;;6.40;99.90;;;;;;5068153;28;20048;-71
2022/11/26 09:43:44;;;;;;;7.47;3.60;;;6.80;99.90;;;;;;5061234;28;19924;-72
2022/11/26 09:46:12;;;;;;;4.13;2.60;;;6.20;99.90;;;;;;5066966;28;20047;-70
2022/11/26 09:48:39;;;;;;;5.40;2.97;;;6.70;99.90;;;;;;5061360;28;20299;-70
2022/11/26 09:51:12;;;;;;;5.05;3.08;;;6.80;99.90;;;;;;5072637;28;20044;-70
2022/11/26 09:53:46;;;;;;;4.78;2.90;;;6.60;99.90;;;;;;5041859;28;20495;-70
2022/11/26 09:56:21;;;;;;;6.32;3.10;;;6.90;99.90;;;;;;5071374;28;20045;-70
2022/11/26 09:59:03;;;;;;;6.38;3.58;;;7.00;99.90;;;;;;5064727;28;20119;-70
2022/11/26 10:01:31;;;;;;;6.20;3.63;;;7.10;99.90;;;;;;5063488;28;20044;-69
2022/11/26 10:03:57;;;;;;;9.05;4.20;;;7.30;99.90;;;;;;5060504;28;20045;-69
2022/11/26 10:06:29;;;;;;;5.97;3.13;;;6.70;99.90;;;;;;5044589;28;20086;-69
2022/11/26 10:09:32;;;;;;;7.05;3.83;;;6.90;99.90;;;;;;5046055;28;20490;-70
2022/11/26 10:12:10;;;;;;;11.15;5.00;;;7.10;99.90;;;;;;5059485;28;20120;-71
2022/11/26 10:15:00;;;;;;;8.82;4.50;;;6.90;99.90;;;;;;5062664;28;20064;-70
2022/11/26 10:17:59;;;;;;;14.38;5.10;;;7.00;99.90;;;;;;5076522;28;20044;-70
2022/11/26 10:20:46;;;;;;;9.23;5.07;;;7.50;99.90;;;;;;5062696;28;20044;-71
2022/11/26 10:23:11;;;;;;;7.68;4.10;;;7.10;99.90;;;;;;5060550;28;20460;-71
2022/11/26 10:25:49;;;;;;;9.27;4.10;;;7.40;99.90;;;;;;5060668;28;20037;-70
2022/11/26 10:28:47;;;;;;;9.18;4.30;;;7.70;99.90;;;;;;5060021;28;20051;-71
2022/11/26 10:31:26;;;;;;;12.73;5.13;;;7.80;99.90;;;;;;5046564;28;20118;-71
2022/11/26 10:34:02;;;;;;;10.07;5.13;;;7.80;99.90;;;;;;5058638;28;20048;-71
2022/11/26 10:36:38;;;;;;;12.55;5.20;;;7.20;99.90;;;;;;5069663;28;20048;-71
2022/11/26 10:39:06;;;;;;;12.57;5.53;;;7.80;99.90;;;;;;5054331;28;20580;-71
2022/11/26 10:41:34;;;;;;;14.35;5.97;;;7.90;99.90;;;;;;5033214;28;20468;-71
2022/11/26 10:44:28;;;;;;;10.27;5.90;;;7.40;99.90;;;;;;5054961;28;20128;-71
2022/11/26 10:46:55;;;;;;;12.23;5.20;;;8.00;99.90;;;;;;5056749;28;20403;-72
2022/11/26 10:49:26;;;;;;;10.63;4.97;;;7.50;99.90;;;;;;5060864;28;20044;-71
2022/11/26 10:51:59;;;;;;;15.65;6.20;;;8.00;99.90;;;;;;5045699;28;20045;-71
2022/11/26 10:54:36;;;;;;;13.50;6.60;;;8.10;99.90;;;;;;5053067;28;20049;-70
2022/11/26 10:57:12;;;;;;;;;;;7.70;99.90;;;;;;5034673;28;20045;-70
2022/11/26 10:59:50;;;;;;;9.05;5.22;;;7.90;99.90;;;;;;5045228;28;20094;-70
2022/11/26 11:02:19;;;;;;;8.02;4.15;;;8.10;99.90;;;;;;5038819;28;20068;-71
2022/11/26 11:04:49;;;;;;;11.32;5.45;;;8.30;99.90;;;;;;5069423;28;20066;-71
2022/11/26 11:07:36;;;;;;;10.05;4.47;;;8.00;99.90;;;;;;5059956;28;20041;-72
2022/11/26 11:10:08;;;;;;;10.15;4.70;;;8.30;99.90;;;;;;5069155;28;20048;-71
2022/11/26 11:13:06;;;;;;;5.90;4.10;;;8.20;99.90;;;;;;5044540;28;20053;-70
2022/11/26 11:15:34;;;;;;;7.10;3.80;;;8.20;99.90;;;;;;5046701;28;20075;-70
2022/11/26 11:18:01;;;;;;;12.82;5.35;;;8.40;99.90;;;;;;5040992;28;20094;-70
2022/11/26 11:20:31;;;;;;;14.20;5.30;;;8.20;99.90;;;;;;5060922;28;20058;-70
2022/11/26 11:23:17;;;;;;;10.05;4.43;;;8.20;99.90;;;;;;5067422;28;20033;-70
2022/11/26 11:25:47;;;;;;;8.05;4.70;;;8.50;99.90;;;;;;5068079;28;20384;-71
2022/11/26 11:28:22;;;;;;;9.52;4.97;;;8.60;99.90;;;;;;5058146;28;21478;-70
2022/11/26 11:31:12;;;;;;;7.90;4.75;;;8.60;99.90;;;;;;5063759;28;20032;-76
2022/11/26 11:33:38;;;;;;;7.13;3.70;;;8.60;99.90;;;;;;5057873;28;20661;-75
2022/11/26 11:36:16;;;;;;;8.45;4.95;;;8.40;99.90;;;;;;5041433;28;20053;-75
2022/11/26 11:38:59;;;;;;;6.97;4.25;;;8.50;99.90;;;;;;5052614;28;20056;-76
2022/11/26 11:41:45;;;;;;;6.07;3.20;;;8.70;99.90;;;;;;5038875;28;20050;-75
2022/11/26 11:44:21;;;;;;;6.40;3.85;;;8.70;99.90;;;;;;5054097;28;20579;-75
2022/11/26 11:47:06;;;;;;;6.38;4.00;;;8.50;99.90;;;;;;5059103;28;20460;-75
2022/11/26 11:49:53;;;;;;;8.32;4.32;;;8.80;99.90;;;;;;5053502;28;20064;-75
2022/11/26 11:52:42;;;;;;;;;;;8.80;99.90;;;;;;5062166;28;20056;-75
2022/11/26 11:55:07;;;;;;;;;;;8.70;99.90;;;;;;5059357;28;19921;-75
2022/11/26 11:58:11;;;;;;;9.85;4.72;;;8.80;99.90;;;;;;5055656;28;19986;-69
2022/11/26 12:00:39;;;;;;;8.00;4.25;;;8.70;99.90;;;;;;4995341;28;20048;-70
2022/11/26 12:03:23;;;;;;;8.05;4.30;;;8.70;99.90;;;;;;5042232;28;20047;-70
2022/11/26 12:06:35;;;;;;;6.72;4.10;;;8.90;99.90;;;;;;5066523;28;20510;-70
2022/11/26 12:09:26;;;;;;;5.55;3.47;;;8.80;99.90;;;;;;5018654;28;20060;-70
2022/11/26 12:11:59;;;;;;;6.30;3.60;;;8.80;99.90;;;;;;5057638;28;20524;-70
2022/11/26 12:14:34;;;;;;;7.18;4.32;;;8.80;99.90;;;;;;5059240;28;20080;-69
2022/11/26 12:17:06;;;;;;;8.98;3.80;;;8.80;99.90;;;;;;5059009;28;20051;-69
2022/11/26 12:19:45;;;;;;;6.97;4.63;;;8.70;99.90;;;;;;5063598;28;20036;-69
2022/11/26 12:22:18;;;;;;;5.22;3.50;;;8.90;99.90;;;;;;5055757;28;20069;-69
2022/11/26 12:25:05;;;;;;;5.88;3.63;;;8.80;99.90;;;;;;5062790;28;20383;-69
2022/11/26 12:27:56;;;;;;;5.28;3.13;;;8.80;99.90;;;;;;5042281;28;20083;-69
2022/11/26 12:30:30;;;;;;;8.40;4.07;;;8.80;99.90;;;;;;5054145;28;20044;-69
2022/11/26 12:33:04;;;;;;;6.07;3.60;;;9.00;99.90;;;;;;5042091;28;20400;-70
2022/11/26 12:35:34;;;;;;;8.20;4.30;;;9.00;99.90;;;;;;5052089;28;20136;-71
2022/11/26 12:38:22;;;;;;;8.35;4.35;;;9.00;99.90;;;;;;5043865;28;20048;-70
2022/11/26 12:40:51;;;;;;;8.48;4.10;;;9.00;99.90;;;;;;5049427;28;20049;-70
2022/11/26 12:43:35;;;;;;;6.25;3.63;;;9.00;99.90;;;;;;5055795;28;20498;-70
2022/11/26 12:46:09;;;;;;;6.25;3.30;;;8.90;99.90;;;;;;5035806;28;20044;-71
2022/11/26 12:48:55;;;;;;;4.75;3.25;;;8.90;99.90;;;;;;5052841;28;20118;-71
2022/11/26 12:51:23;;;;;;;3.95;2.53;;;9.00;99.90;;;;;;5036884;28;20452;-76
2022/11/26 12:54:07;;;;;;;8.73;3.70;;;9.00;99.90;;;;;;5041438;28;20079;-71
2022/11/26 12:56:50;;;;;;;5.90;3.65;;;9.00;99.90;;;;;;5064737;28;20048;-71
2022/11/26 12:59:37;;;;;;;5.55;3.28;;;8.90;99.90;;;;;;5056620;28;20040;-72
2022/11/26 13:02:22;;;;;;;9.02;4.65;;;8.80;99.90;;;;;;5051594;28;20118;-71
2022/11/26 13:04:48;;;;;;;6.63;4.15;;;8.90;99.90;;;;;;5049015;28;20095;-71
2022/11/26 13:07:17;;;;;;;;;;;8.90;99.90;;;;;;5050881;28;20056;-71
2022/11/26 13:09:45;;;;;;;7.55;4.18;;;8.90;99.90;;;;;;5052326;28;20007;-71
2022/11/26 13:12:41;;;;;;;8.73;5.10;;;8.90;99.90;;;;;;5057666;28;20528;-71
2022/11/26 13:15:17;;;;;;;6.50;3.67;;;8.80;99.90;;;;;;5054587;28;20044;-74
2022/11/26 13:17:46;;;;;;;5.57;3.50;;;8.80;99.90;;;;;;5057873;28;20125;-73